sensor_id;sensor_type;location;lat;lon;timestamp;P1;durP1;ratioP1;P2;durP2;ratioP2
1925;SDS011;964;42.606;23.588;2023-02-18T00:01:49;18.53;;;11.00;;
1925;SDS011;964;42.606;23.588;2023-02-18T00:04:16;20.83;;;11.87;;
1925;SDS011;964;42.606;23.588;2023-02-18T00:06:44;21.60;;;10.40;;
1925;SDS011;964;42.606;23.588;2023-02-18T00:09:11;24.53;;;10.50;;
1925;SDS011;964;42.606;23.588;2023-02-18T00:11:37;43.80;;;17.60;;
1925;SDS011;964;42.606;23.588;2023-02-18T00:14:06;45.20;;;18.00;;
1925;SDS011;964;42.606;23.588;2023-02-18T00:16:36;31.20;;;12.97;;
1925;SDS011;964;42.606;23.588;2023-02-18T00:19:04;34.67;;;14.60;;
1925;SDS011;964;42.606;23.588;2023-02-18T00:21:33;40.03;;;13.73;;
1925;SDS011;964;42.606;23.588;2023-02-18T00:24:02;28.27;;;11.30;;
1925;SDS011;964;42.606;23.588;2023-02-18T00:26:30;15.90;;;9.23;;
1925;SDS011;964;42.606;23.588;2023-02-18T00:28:56;24.67;;;11.33;;
1925;SDS011;964;42.606;23.588;2023-02-18T00:31:24;18.53;;;9.10;;
1925;SDS011;964;42.606;23.588;2023-02-18T00:33:53;20.73;;;10.83;;
1925;SDS011;964;42.606;23.588;2023-02-18T00:36:22;21.67;;;10.20;;
1925;SDS011;964;42.606;23.588;2023-02-18T00:38:50;25.93;;;11.63;;
1925;SDS011;964;42.606;23.588;2023-02-18T00:41:20;24.60;;;11.70;;
1925;SDS011;964;42.606;23.588;2023-02-18T00:43:48;22.73;;;10.73;;
1925;SDS011;964;42.606;23.588;2023-02-18T00:46:15;26.83;;;13.40;;
1925;SDS011;964;42.606;23.588;2023-02-18T00:48:42;15.63;;;9.37;;
1925;SDS011;964;42.606;23.588;2023-02-18T00:51:09;18.80;;;10.23;;
1925;SDS011;964;42.606;23.588;2023-02-18T00:53:36;23.60;;;13.47;;
1925;SDS011;964;42.606;23.588;2023-02-18T00:56:04;22.43;;;11.53;;
1925;SDS011;964;42.606;23.588;2023-02-18T00:58:32;22.17;;;13.03;;
1925;SDS011;964;42.606;23.588;2023-02-18T01:00:59;22.93;;;13.30;;
1925;SDS011;964;42.606;23.588;2023-02-18T01:03:26;20.23;;;13.90;;
1925;SDS011;964;42.606;23.588;2023-02-18T01:05:53;24.90;;;13.93;;
1925;SDS011;964;42.606;23.588;2023-02-18T01:08:20;22.67;;;12.57;;
1925;SDS011;964;42.606;23.588;2023-02-18T01:10:47;20.70;;;11.40;;
1925;SDS011;964;42.606;23.588;2023-02-18T01:13:18;24.33;;;13.70;;
1925;SDS011;964;42.606;23.588;2023-02-18T01:15:46;29.83;;;12.50;;
1925;SDS011;964;42.606;23.588;2023-02-18T01:18:13;26.43;;;13.63;;
1925;SDS011;964;42.606;23.588;2023-02-18T01:20:40;46.10;;;21.77;;
1925;SDS011;964;42.606;23.588;2023-02-18T01:23:09;45.40;;;23.47;;
1925;SDS011;964;42.606;23.588;2023-02-18T01:25:36;31.73;;;16.47;;
1925;SDS011;964;42.606;23.588;2023-02-18T01:28:04;38.83;;;17.40;;
1925;SDS011;964;42.606;23.588;2023-02-18T01:30:32;21.60;;;12.33;;
1925;SDS011;964;42.606;23.588;2023-02-18T01:33:01;24.97;;;14.30;;
1925;SDS011;964;42.606;23.588;2023-02-18T01:35:27;21.50;;;12.40;;
1925;SDS011;964;42.606;23.588;2023-02-18T01:37:54;26.63;;;10.30;;
1925;SDS011;964;42.606;23.588;2023-02-18T01:40:22;21.40;;;10.30;;
1925;SDS011;964;42.606;23.588;2023-02-18T01:42:51;24.47;;;9.60;;
1925;SDS011;964;42.606;23.588;2023-02-18T01:45:39;24.30;;;10.63;;
1925;SDS011;964;42.606;23.588;2023-02-18T01:48:17;23.20;;;10.47;;
1925;SDS011;964;42.606;23.588;2023-02-18T01:50:49;17.70;;;8.27;;
1925;SDS011;964;42.606;23.588;2023-02-18T01:53:22;15.27;;;9.40;;
1925;SDS011;964;42.606;23.588;2023-02-18T01:55:52;10.47;;;6.57;;
1925;SDS011;964;42.606;23.588;2023-02-18T01:58:21;17.33;;;8.80;;
1925;SDS011;964;42.606;23.588;2023-02-18T02:00:48;22.77;;;10.73;;
1925;SDS011;964;42.606;23.588;2023-02-18T02:03:16;15.67;;;8.90;;
1925;SDS011;964;42.606;23.588;2023-02-18T02:05:43;13.17;;;7.30;;
1925;SDS011;964;42.606;23.588;2023-02-18T02:08:10;14.40;;;7.07;;
1925;SDS011;964;42.606;23.588;2023-02-18T02:10:40;9.90;;;6.07;;
1925;SDS011;964;42.606;23.588;2023-02-18T02:13:25;10.97;;;6.13;;
1925;SDS011;964;42.606;23.588;2023-02-18T02:16:01;12.47;;;6.30;;
1925;SDS011;964;42.606;23.588;2023-02-18T02:18:43;9.63;;;5.60;;
1925;SDS011;964;42.606;23.588;2023-02-18T02:21:34;10.13;;;5.60;;
1925;SDS011;964;42.606;23.588;2023-02-18T02:27:20;11.80;;;6.80;;
1925;SDS011;964;42.606;23.588;2023-02-18T02:29:59;19.00;;;7.13;;
1925;SDS011;964;42.606;23.588;2023-02-18T02:35:48;19.57;;;9.97;;
1925;SDS011;964;42.606;23.588;2023-02-18T02:38:21;26.17;;;13.47;;
1925;SDS011;964;42.606;23.588;2023-02-18T02:40:56;27.67;;;16.40;;
1925;SDS011;964;42.606;23.588;2023-02-18T02:43:31;28.70;;;14.80;;
1925;SDS011;964;42.606;23.588;2023-02-18T02:46:05;23.77;;;13.43;;
1925;SDS011;964;42.606;23.588;2023-02-18T02:48:39;16.33;;;10.13;;
1925;SDS011;964;42.606;23.588;2023-02-18T02:51:14;13.57;;;8.17;;
1925;SDS011;964;42.606;23.588;2023-02-18T02:53:45;12.20;;;8.30;;
1925;SDS011;964;42.606;23.588;2023-02-18T02:56:15;13.53;;;8.40;;
1925;SDS011;964;42.606;23.588;2023-02-18T02:58:43;18.80;;;11.50;;
1925;SDS011;964;42.606;23.588;2023-02-18T03:01:16;15.30;;;9.00;;
1925;SDS011;964;42.606;23.588;2023-02-18T03:03:55;17.27;;;8.47;;
1925;SDS011;964;42.606;23.588;2023-02-18T03:06:45;12.87;;;8.43;;
1925;SDS011;964;42.606;23.588;2023-02-18T03:09:25;10.60;;;7.40;;
1925;SDS011;964;42.606;23.588;2023-02-18T03:12:06;12.60;;;6.67;;
1925;SDS011;964;42.606;23.588;2023-02-18T03:14:41;12.23;;;6.20;;
1925;SDS011;964;42.606;23.588;2023-02-18T03:17:14;15.73;;;7.90;;
1925;SDS011;964;42.606;23.588;2023-02-18T03:19:49;13.00;;;9.03;;
1925;SDS011;964;42.606;23.588;2023-02-18T03:22:22;15.97;;;9.60;;
1925;SDS011;964;42.606;23.588;2023-02-18T03:24:53;13.73;;;8.93;;
1925;SDS011;964;42.606;23.588;2023-02-18T03:27:24;12.30;;;8.33;;
1925;SDS011;964;42.606;23.588;2023-02-18T03:29:55;11.20;;;7.37;;
1925;SDS011;964;42.606;23.588;2023-02-18T03:32:24;13.20;;;7.07;;
1925;SDS011;964;42.606;23.588;2023-02-18T03:34:54;13.50;;;7.33;;
1925;SDS011;964;42.606;23.588;2023-02-18T03:37:26;12.87;;;6.77;;
1925;SDS011;964;42.606;23.588;2023-02-18T03:39:56;10.77;;;6.83;;
1925;SDS011;964;42.606;23.588;2023-02-18T03:42:26;11.40;;;5.90;;
1925;SDS011;964;42.606;23.588;2023-02-18T03:44:54;9.63;;;7.33;;
1925;SDS011;964;42.606;23.588;2023-02-18T03:47:21;14.77;;;6.63;;
1925;SDS011;964;42.606;23.588;2023-02-18T03:49:48;12.73;;;6.60;;
1925;SDS011;964;42.606;23.588;2023-02-18T03:52:15;14.03;;;5.87;;
1925;SDS011;964;42.606;23.588;2023-02-18T03:54:43;12.07;;;6.10;;
1925;SDS011;964;42.606;23.588;2023-02-18T03:57:10;13.10;;;5.93;;
1925;SDS011;964;42.606;23.588;2023-02-18T03:59:37;10.10;;;6.30;;
1925;SDS011;964;42.606;23.588;2023-02-18T04:02:03;10.83;;;5.83;;
1925;SDS011;964;42.606;23.588;2023-02-18T04:04:30;10.50;;;6.17;;
1925;SDS011;964;42.606;23.588;2023-02-18T04:06:56;13.60;;;6.33;;
1925;SDS011;964;42.606;23.588;2023-02-18T04:09:24;12.50;;;7.00;;
1925;SDS011;964;42.606;23.588;2023-02-18T04:11:52;12.80;;;8.10;;
1925;SDS011;964;42.606;23.588;2023-02-18T04:14:18;12.90;;;7.10;;
1925;SDS011;964;42.606;23.588;2023-02-18T04:16:45;14.80;;;9.07;;
1925;SDS011;964;42.606;23.588;2023-02-18T04:19:12;13.43;;;8.47;;
1925;SDS011;964;42.606;23.588;2023-02-18T04:21:38;13.37;;;7.90;;
1925;SDS011;964;42.606;23.588;2023-02-18T04:24:05;13.97;;;8.37;;
1925;SDS011;964;42.606;23.588;2023-02-18T04:26:32;14.83;;;8.93;;
1925;SDS011;964;42.606;23.588;2023-02-18T04:29:00;14.17;;;8.10;;
1925;SDS011;964;42.606;23.588;2023-02-18T04:31:27;12.33;;;7.00;;
1925;SDS011;964;42.606;23.588;2023-02-18T04:33:54;13.50;;;6.80;;
1925;SDS011;964;42.606;23.588;2023-02-18T04:36:20;9.87;;;6.50;;
1925;SDS011;964;42.606;23.588;2023-02-18T04:38:47;11.07;;;6.97;;
1925;SDS011;964;42.606;23.588;2023-02-18T04:41:14;13.47;;;7.70;;
1925;SDS011;964;42.606;23.588;2023-02-18T04:43:41;15.70;;;7.60;;
1925;SDS011;964;42.606;23.588;2023-02-18T04:46:09;13.20;;;8.23;;
1925;SDS011;964;42.606;23.588;2023-02-18T04:48:35;10.80;;;7.00;;
1925;SDS011;964;42.606;23.588;2023-02-18T04:51:03;16.43;;;7.60;;
1925;SDS011;964;42.606;23.588;2023-02-18T04:53:29;21.57;;;8.13;;
1925;SDS011;964;42.606;23.588;2023-02-18T04:55:56;15.27;;;8.40;;
1925;SDS011;964;42.606;23.588;2023-02-18T04:58:23;12.67;;;7.23;;
1925;SDS011;964;42.606;23.588;2023-02-18T05:00:50;18.70;;;7.70;;
1925;SDS011;964;42.606;23.588;2023-02-18T05:03:19;11.20;;;7.03;;
1925;SDS011;964;42.606;23.588;2023-02-18T05:05:46;16.37;;;9.00;;
1925;SDS011;964;42.606;23.588;2023-02-18T05:08:12;16.40;;;7.00;;
1925;SDS011;964;42.606;23.588;2023-02-18T05:10:40;15.53;;;8.47;;
1925;SDS011;964;42.606;23.588;2023-02-18T05:13:07;13.70;;;7.87;;
1925;SDS011;964;42.606;23.588;2023-02-18T05:15:33;17.63;;;7.37;;
1925;SDS011;964;42.606;23.588;2023-02-18T05:18:00;10.53;;;6.70;;
1925;SDS011;964;42.606;23.588;2023-02-18T05:20:30;13.40;;;7.27;;
1925;SDS011;964;42.606;23.588;2023-02-18T05:22:57;12.10;;;7.10;;
1925;SDS011;964;42.606;23.588;2023-02-18T05:25:24;16.67;;;7.83;;
1925;SDS011;964;42.606;23.588;2023-02-18T05:27:51;11.87;;;7.93;;
1925;SDS011;964;42.606;23.588;2023-02-18T05:30:24;12.50;;;6.43;;
1925;SDS011;964;42.606;23.588;2023-02-18T05:33:15;10.87;;;6.60;;
1925;SDS011;964;42.606;23.588;2023-02-18T05:35:43;13.43;;;7.67;;
1925;SDS011;964;42.606;23.588;2023-02-18T05:38:10;13.63;;;7.17;;
1925;SDS011;964;42.606;23.588;2023-02-18T05:40:36;13.00;;;8.40;;
1925;SDS011;964;42.606;23.588;2023-02-18T05:43:03;28.80;;;10.40;;
1925;SDS011;964;42.606;23.588;2023-02-18T05:45:30;18.57;;;9.97;;
1925;SDS011;964;42.606;23.588;2023-02-18T05:47:57;14.70;;;10.00;;
1925;SDS011;964;42.606;23.588;2023-02-18T05:50:23;27.30;;;15.47;;
1925;SDS011;964;42.606;23.588;2023-02-18T05:52:52;23.30;;;12.20;;
1925;SDS011;964;42.606;23.588;2023-02-18T05:55:18;29.27;;;14.30;;
1925;SDS011;964;42.606;23.588;2023-02-18T05:57:45;64.57;;;33.30;;
1925;SDS011;964;42.606;23.588;2023-02-18T06:00:12;48.90;;;25.07;;
1925;SDS011;964;42.606;23.588;2023-02-18T06:02:39;85.17;;;30.33;;
1925;SDS011;964;42.606;23.588;2023-02-18T06:05:06;60.17;;;26.40;;
1925;SDS011;964;42.606;23.588;2023-02-18T06:07:34;39.20;;;17.90;;
1925;SDS011;964;42.606;23.588;2023-02-18T06:10:02;18.57;;;10.90;;
1925;SDS011;964;42.606;23.588;2023-02-18T06:12:29;21.80;;;11.97;;
1925;SDS011;964;42.606;23.588;2023-02-18T06:14:56;22.00;;;13.63;;
1925;SDS011;964;42.606;23.588;2023-02-18T06:17:22;26.23;;;14.23;;
1925;SDS011;964;42.606;23.588;2023-02-18T06:19:49;29.23;;;14.50;;
1925;SDS011;964;42.606;23.588;2023-02-18T06:22:16;14.93;;;8.57;;
1925;SDS011;964;42.606;23.588;2023-02-18T06:24:42;11.30;;;7.00;;
1925;SDS011;964;42.606;23.588;2023-02-18T06:27:10;13.23;;;8.27;;
1925;SDS011;964;42.606;23.588;2023-02-18T06:29:37;14.30;;;7.70;;
1925;SDS011;964;42.606;23.588;2023-02-18T06:32:04;10.93;;;7.67;;
1925;SDS011;964;42.606;23.588;2023-02-18T06:34:31;9.47;;;7.50;;
1925;SDS011;964;42.606;23.588;2023-02-18T06:36:57;10.67;;;6.60;;
1925;SDS011;964;42.606;23.588;2023-02-18T06:39:24;13.70;;;6.90;;
1925;SDS011;964;42.606;23.588;2023-02-18T06:41:51;10.80;;;7.77;;
1925;SDS011;964;42.606;23.588;2023-02-18T06:44:19;13.40;;;6.97;;
1925;SDS011;964;42.606;23.588;2023-02-18T06:46:45;16.00;;;8.00;;
1925;SDS011;964;42.606;23.588;2023-02-18T06:49:12;14.33;;;7.10;;
1925;SDS011;964;42.606;23.588;2023-02-18T06:51:39;14.33;;;8.30;;
1925;SDS011;964;42.606;23.588;2023-02-18T06:54:06;11.67;;;7.43;;
1925;SDS011;964;42.606;23.588;2023-02-18T06:56:32;10.63;;;7.70;;
1925;SDS011;964;42.606;23.588;2023-02-18T06:58:59;11.20;;;7.00;;
1925;SDS011;964;42.606;23.588;2023-02-18T07:01:27;14.10;;;7.60;;
1925;SDS011;964;42.606;23.588;2023-02-18T07:03:54;12.83;;;8.03;;
1925;SDS011;964;42.606;23.588;2023-02-18T07:06:20;14.50;;;7.00;;
1925;SDS011;964;42.606;23.588;2023-02-18T07:08:47;11.80;;;7.17;;
1925;SDS011;964;42.606;23.588;2023-02-18T07:11:14;11.37;;;8.17;;
1925;SDS011;964;42.606;23.588;2023-02-18T07:13:40;11.73;;;7.53;;
1925;SDS011;964;42.606;23.588;2023-02-18T07:16:07;13.90;;;7.40;;
1925;SDS011;964;42.606;23.588;2023-02-18T07:18:36;12.03;;;7.77;;
1925;SDS011;964;42.606;23.588;2023-02-18T07:21:03;13.00;;;7.53;;
1925;SDS011;964;42.606;23.588;2023-02-18T07:23:29;12.40;;;7.80;;
1925;SDS011;964;42.606;23.588;2023-02-18T07:26:05;13.47;;;7.70;;
1925;SDS011;964;42.606;23.588;2023-02-18T07:28:33;11.87;;;7.70;;
1925;SDS011;964;42.606;23.588;2023-02-18T07:31:01;14.03;;;7.63;;
1925;SDS011;964;42.606;23.588;2023-02-18T07:33:27;11.80;;;7.90;;
1925;SDS011;964;42.606;23.588;2023-02-18T07:35:56;14.07;;;7.83;;
1925;SDS011;964;42.606;23.588;2023-02-18T07:38:25;16.80;;;7.53;;
1925;SDS011;964;42.606;23.588;2023-02-18T07:40:53;11.03;;;8.00;;
1925;SDS011;964;42.606;23.588;2023-02-18T07:43:20;15.10;;;8.03;;
1925;SDS011;964;42.606;23.588;2023-02-18T07:45:47;15.23;;;8.70;;
1925;SDS011;964;42.606;23.588;2023-02-18T07:48:14;13.10;;;8.43;;
1925;SDS011;964;42.606;23.588;2023-02-18T07:50:42;10.73;;;7.50;;
1925;SDS011;964;42.606;23.588;2023-02-18T07:53:13;14.30;;;8.70;;
1925;SDS011;964;42.606;23.588;2023-02-18T07:55:41;13.13;;;7.70;;
1925;SDS011;964;42.606;23.588;2023-02-18T07:58:17;15.13;;;8.73;;
1925;SDS011;964;42.606;23.588;2023-02-18T08:00:45;13.23;;;7.77;;
1925;SDS011;964;42.606;23.588;2023-02-18T08:03:13;11.60;;;7.90;;
1925;SDS011;964;42.606;23.588;2023-02-18T08:05:40;12.93;;;8.37;;
1925;SDS011;964;42.606;23.588;2023-02-18T08:08:11;11.10;;;7.33;;
1925;SDS011;964;42.606;23.588;2023-02-18T08:10:40;12.63;;;7.50;;
1925;SDS011;964;42.606;23.588;2023-02-18T08:13:08;14.80;;;7.77;;
1925;SDS011;964;42.606;23.588;2023-02-18T08:15:35;14.20;;;7.87;;
1925;SDS011;964;42.606;23.588;2023-02-18T08:18:02;12.13;;;7.97;;
1925;SDS011;964;42.606;23.588;2023-02-18T08:20:30;11.87;;;7.80;;
1925;SDS011;964;42.606;23.588;2023-02-18T08:22:57;15.20;;;8.43;;
1925;SDS011;964;42.606;23.588;2023-02-18T08:25:25;13.23;;;8.67;;
1925;SDS011;964;42.606;23.588;2023-02-18T08:27:51;12.67;;;8.03;;
1925;SDS011;964;42.606;23.588;2023-02-18T08:30:18;13.30;;;8.30;;
1925;SDS011;964;42.606;23.588;2023-02-18T08:32:45;14.13;;;8.20;;
1925;SDS011;964;42.606;23.588;2023-02-18T08:35:11;13.63;;;8.77;;
1925;SDS011;964;42.606;23.588;2023-02-18T08:37:38;12.90;;;8.20;;
1925;SDS011;964;42.606;23.588;2023-02-18T08:40:05;14.57;;;8.50;;
1925;SDS011;964;42.606;23.588;2023-02-18T08:42:34;12.27;;;8.13;;
1925;SDS011;964;42.606;23.588;2023-02-18T08:45:01;10.37;;;8.17;;
1925;SDS011;964;42.606;23.588;2023-02-18T08:47:28;17.70;;;9.57;;
1925;SDS011;964;42.606;23.588;2023-02-18T08:49:55;15.83;;;8.57;;
1925;SDS011;964;42.606;23.588;2023-02-18T08:52:22;15.27;;;9.10;;
1925;SDS011;964;42.606;23.588;2023-02-18T08:54:49;12.30;;;9.13;;
1925;SDS011;964;42.606;23.588;2023-02-18T08:57:15;12.97;;;9.13;;
1925;SDS011;964;42.606;23.588;2023-02-18T08:59:44;15.23;;;10.05;;
1925;SDS011;964;42.606;23.588;2023-02-18T09:02:10;15.53;;;10.20;;
1925;SDS011;964;42.606;23.588;2023-02-18T09:04:39;20.20;;;11.67;;
1925;SDS011;964;42.606;23.588;2023-02-18T09:07:05;16.08;;;10.70;;
1925;SDS011;964;42.606;23.588;2023-02-18T09:09:32;17.83;;;10.93;;
1925;SDS011;964;42.606;23.588;2023-02-18T09:11:59;14.67;;;10.90;;
1925;SDS011;964;42.606;23.588;2023-02-18T09:14:26;16.23;;;10.57;;
1925;SDS011;964;42.606;23.588;2023-02-18T09:16:55;19.30;;;11.90;;
1925;SDS011;964;42.606;23.588;2023-02-18T09:19:22;17.33;;;10.27;;
1925;SDS011;964;42.606;23.588;2023-02-18T09:21:49;16.73;;;11.37;;
1925;SDS011;964;42.606;23.588;2023-02-18T09:24:17;17.37;;;11.03;;
1925;SDS011;964;42.606;23.588;2023-02-18T09:26:43;16.43;;;11.17;;
1925;SDS011;964;42.606;23.588;2023-02-18T09:29:10;15.73;;;10.23;;
1925;SDS011;964;42.606;23.588;2023-02-18T09:31:37;14.40;;;10.10;;
1925;SDS011;964;42.606;23.588;2023-02-18T09:34:05;14.90;;;10.33;;
1925;SDS011;964;42.606;23.588;2023-02-18T09:36:32;13.67;;;10.10;;
1925;SDS011;964;42.606;23.588;2023-02-18T09:38:59;15.57;;;10.17;;
1925;SDS011;964;42.606;23.588;2023-02-18T09:41:29;13.10;;;9.20;;
1925;SDS011;964;42.606;23.588;2023-02-18T09:44:03;17.50;;;10.77;;
1925;SDS011;964;42.606;23.588;2023-02-18T09:46:39;14.47;;;9.47;;
1925;SDS011;964;42.606;23.588;2023-02-18T09:49:14;16.40;;;9.13;;
1925;SDS011;964;42.606;23.588;2023-02-18T09:51:43;17.20;;;10.00;;
1925;SDS011;964;42.606;23.588;2023-02-18T09:54:11;14.83;;;10.20;;
1925;SDS011;964;42.606;23.588;2023-02-18T09:56:40;15.73;;;8.93;;
1925;SDS011;964;42.606;23.588;2023-02-18T09:59:10;12.23;;;9.13;;
1925;SDS011;964;42.606;23.588;2023-02-18T10:01:40;14.63;;;10.40;;
1925;SDS011;964;42.606;23.588;2023-02-18T10:04:10;11.13;;;8.57;;
1925;SDS011;964;42.606;23.588;2023-02-18T10:06:42;16.77;;;10.43;;
1925;SDS011;964;42.606;23.588;2023-02-18T10:09:12;13.80;;;9.63;;
1925;SDS011;964;42.606;23.588;2023-02-18T10:11:45;14.70;;;10.32;;
1925;SDS011;964;42.606;23.588;2023-02-18T10:14:15;14.20;;;10.27;;
1925;SDS011;964;42.606;23.588;2023-02-18T10:16:42;12.07;;;9.30;;
1925;SDS011;964;42.606;23.588;2023-02-18T10:19:13;15.83;;;10.27;;
1925;SDS011;964;42.606;23.588;2023-02-18T10:21:48;15.33;;;10.00;;
1925;SDS011;964;42.606;23.588;2023-02-18T10:24:18;12.60;;;8.67;;
1925;SDS011;964;42.606;23.588;2023-02-18T10:26:52;14.67;;;9.63;;
1925;SDS011;964;42.606;23.588;2023-02-18T10:29:19;14.37;;;9.40;;
1925;SDS011;964;42.606;23.588;2023-02-18T10:31:48;14.97;;;10.03;;
1925;SDS011;964;42.606;23.588;2023-02-18T10:34:23;10.37;;;8.70;;
1925;SDS011;964;42.606;23.588;2023-02-18T10:37:06;16.60;;;9.90;;
1925;SDS011;964;42.606;23.588;2023-02-18T10:39:51;13.57;;;8.67;;
1925;SDS011;964;42.606;23.588;2023-02-18T10:42:28;13.57;;;9.23;;
1925;SDS011;964;42.606;23.588;2023-02-18T10:45:07;12.33;;;9.97;;
1925;SDS011;964;42.606;23.588;2023-02-18T10:47:45;16.77;;;9.70;;
1925;SDS011;964;42.606;23.588;2023-02-18T10:50:24;12.97;;;10.07;;
1925;SDS011;964;42.606;23.588;2023-02-18T10:52:55;11.90;;;9.33;;
1925;SDS011;964;42.606;23.588;2023-02-18T10:55:33;15.57;;;9.67;;
1925;SDS011;964;42.606;23.588;2023-02-18T10:58:02;14.23;;;8.87;;
1925;SDS011;964;42.606;23.588;2023-02-18T11:00:33;14.33;;;9.13;;
1925;SDS011;964;42.606;23.588;2023-02-18T11:03:02;9.93;;;7.80;;
1925;SDS011;964;42.606;23.588;2023-02-18T11:05:39;11.50;;;7.90;;
1925;SDS011;964;42.606;23.588;2023-02-18T11:08:07;16.23;;;7.80;;
1925;SDS011;964;42.606;23.588;2023-02-18T11:10:37;10.87;;;8.13;;
1925;SDS011;964;42.606;23.588;2023-02-18T11:13:07;11.33;;;8.60;;
1925;SDS011;964;42.606;23.588;2023-02-18T11:15:37;11.97;;;7.30;;
1925;SDS011;964;42.606;23.588;2023-02-18T11:18:25;11.53;;;6.47;;
1925;SDS011;964;42.606;23.588;2023-02-18T11:20:59;13.80;;;8.13;;
1925;SDS011;964;42.606;23.588;2023-02-18T11:23:26;14.03;;;7.77;;
1925;SDS011;964;42.606;23.588;2023-02-18T11:25:54;11.40;;;7.70;;
1925;SDS011;964;42.606;23.588;2023-02-18T11:28:26;14.70;;;8.20;;
1925;SDS011;964;42.606;23.588;2023-02-18T11:31:05;12.63;;;7.90;;
1925;SDS011;964;42.606;23.588;2023-02-18T11:33:34;12.60;;;7.33;;
1925;SDS011;964;42.606;23.588;2023-02-18T11:36:11;10.30;;;8.00;;
1925;SDS011;964;42.606;23.588;2023-02-18T11:38:46;9.90;;;7.13;;
1925;SDS011;964;42.606;23.588;2023-02-18T11:41:15;11.00;;;8.73;;
1925;SDS011;964;42.606;23.588;2023-02-18T11:43:44;13.57;;;8.20;;
1925;SDS011;964;42.606;23.588;2023-02-18T11:46:15;10.50;;;7.87;;
1925;SDS011;964;42.606;23.588;2023-02-18T11:48:42;10.10;;;7.67;;
1925;SDS011;964;42.606;23.588;2023-02-18T11:51:15;11.17;;;7.40;;
1925;SDS011;964;42.606;23.588;2023-02-18T11:53:54;13.73;;;7.50;;
1925;SDS011;964;42.606;23.588;2023-02-18T11:56:24;9.40;;;7.10;;
1925;SDS011;964;42.606;23.588;2023-02-18T11:58:53;10.67;;;8.30;;
1925;SDS011;964;42.606;23.588;2023-02-18T12:01:24;8.77;;;7.28;;
1925;SDS011;964;42.606;23.588;2023-02-18T12:03:57;10.27;;;7.30;;
1925;SDS011;964;42.606;23.588;2023-02-18T12:06:31;11.23;;;7.17;;
1925;SDS011;964;42.606;23.588;2023-02-18T12:09:03;12.25;;;7.50;;
1925;SDS011;964;42.606;23.588;2023-02-18T12:11:34;12.40;;;7.20;;
1925;SDS011;964;42.606;23.588;2023-02-18T12:14:07;7.40;;;6.20;;
1925;SDS011;964;42.606;23.588;2023-02-18T12:16:38;8.80;;;7.07;;
1925;SDS011;964;42.606;23.588;2023-02-18T12:19:17;7.73;;;6.60;;
1925;SDS011;964;42.606;23.588;2023-02-18T12:22:03;11.50;;;6.77;;
1925;SDS011;964;42.606;23.588;2023-02-18T12:24:41;9.97;;;7.00;;
1925;SDS011;964;42.606;23.588;2023-02-18T12:27:23;11.37;;;6.83;;
1925;SDS011;964;42.606;23.588;2023-02-18T12:29:59;11.80;;;6.57;;
1925;SDS011;964;42.606;23.588;2023-02-18T12:32:43;17.13;;;7.60;;
1925;SDS011;964;42.606;23.588;2023-02-18T12:35:25;8.17;;;6.10;;
1925;SDS011;964;42.606;23.588;2023-02-18T12:38:09;8.57;;;6.40;;
1925;SDS011;964;42.606;23.588;2023-02-18T12:40:59;8.87;;;6.53;;
1925;SDS011;964;42.606;23.588;2023-02-18T12:43:38;6.90;;;5.80;;
1925;SDS011;964;42.606;23.588;2023-02-18T12:46:21;8.77;;;6.13;;
1925;SDS011;964;42.606;23.588;2023-02-18T12:49:00;8.00;;;6.50;;
1925;SDS011;964;42.606;23.588;2023-02-18T12:51:37;12.73;;;7.00;;
1925;SDS011;964;42.606;23.588;2023-02-18T12:54:21;10.80;;;7.13;;
1925;SDS011;964;42.606;23.588;2023-02-18T12:57:12;9.37;;;5.93;;
1925;SDS011;964;42.606;23.588;2023-02-18T13:03:10;7.53;;;6.20;;
1925;SDS011;964;42.606;23.588;2023-02-18T13:06:01;8.30;;;6.27;;
1925;SDS011;964;42.606;23.588;2023-02-18T13:08:40;7.50;;;5.50;;
1925;SDS011;964;42.606;23.588;2023-02-18T13:11:21;8.60;;;5.63;;
1925;SDS011;964;42.606;23.588;2023-02-18T13:13:57;9.60;;;6.10;;
1925;SDS011;964;42.606;23.588;2023-02-18T13:16:28;8.40;;;6.20;;
1925;SDS011;964;42.606;23.588;2023-02-18T13:18:58;8.83;;;5.80;;
1925;SDS011;964;42.606;23.588;2023-02-18T13:21:28;9.20;;;6.40;;
1925;SDS011;964;42.606;23.588;2023-02-18T13:23:57;9.17;;;6.07;;
1925;SDS011;964;42.606;23.588;2023-02-18T13:26:28;6.23;;;5.60;;
1925;SDS011;964;42.606;23.588;2023-02-18T13:29:02;11.17;;;6.60;;
1925;SDS011;964;42.606;23.588;2023-02-18T13:31:41;10.50;;;5.83;;
1925;SDS011;964;42.606;23.588;2023-02-18T13:34:14;9.97;;;4.97;;
1925;SDS011;964;42.606;23.588;2023-02-18T13:36:53;5.63;;;3.97;;
1925;SDS011;964;42.606;23.588;2023-02-18T13:39:29;8.37;;;4.30;;
1925;SDS011;964;42.606;23.588;2023-02-18T13:42:18;6.97;;;3.97;;
1925;SDS011;964;42.606;23.588;2023-02-18T13:47:50;5.30;;;4.43;;
1925;SDS011;964;42.606;23.588;2023-02-18T13:50:38;6.80;;;4.43;;
1925;SDS011;964;42.606;23.588;2023-02-18T13:53:22;11.50;;;5.50;;
1925;SDS011;964;42.606;23.588;2023-02-18T13:55:54;6.50;;;4.63;;
1925;SDS011;964;42.606;23.588;2023-02-18T13:58:29;9.83;;;4.33;;
1925;SDS011;964;42.606;23.588;2023-02-18T14:01:01;5.30;;;4.00;;
1925;SDS011;964;42.606;23.588;2023-02-18T14:03:32;6.53;;;4.30;;
1925;SDS011;964;42.606;23.588;2023-02-18T14:06:11;5.73;;;4.17;;
1925;SDS011;964;42.606;23.588;2023-02-18T14:08:40;5.83;;;4.37;;
1925;SDS011;964;42.606;23.588;2023-02-18T14:11:23;7.27;;;4.20;;
1925;SDS011;964;42.606;23.588;2023-02-18T14:14:14;4.80;;;3.83;;
1925;SDS011;964;42.606;23.588;2023-02-18T14:17:13;7.23;;;4.10;;
1925;SDS011;964;42.606;23.588;2023-02-18T14:19:55;6.00;;;4.00;;
1925;SDS011;964;42.606;23.588;2023-02-18T14:23:11;6.47;;;4.50;;
1925;SDS011;964;42.606;23.588;2023-02-18T14:26:05;9.23;;;4.93;;
1925;SDS011;964;42.606;23.588;2023-02-18T14:28:35;4.27;;;3.67;;
1925;SDS011;964;42.606;23.588;2023-02-18T14:31:06;5.70;;;4.03;;
1925;SDS011;964;42.606;23.588;2023-02-18T14:33:49;5.47;;;4.03;;
1925;SDS011;964;42.606;23.588;2023-02-18T14:36:28;8.20;;;5.13;;
1925;SDS011;964;42.606;23.588;2023-02-18T14:39:00;4.43;;;3.83;;
1925;SDS011;964;42.606;23.588;2023-02-18T14:41:40;6.13;;;4.67;;
1925;SDS011;964;42.606;23.588;2023-02-18T14:47:19;8.27;;;4.70;;
1925;SDS011;964;42.606;23.588;2023-02-18T14:49:54;6.43;;;4.57;;
1925;SDS011;964;42.606;23.588;2023-02-18T14:52:27;6.00;;;4.03;;
1925;SDS011;964;42.606;23.588;2023-02-18T14:54:57;7.13;;;4.23;;
1925;SDS011;964;42.606;23.588;2023-02-18T14:57:31;4.73;;;4.20;;
1925;SDS011;964;42.606;23.588;2023-02-18T15:00:04;6.77;;;4.90;;
1925;SDS011;964;42.606;23.588;2023-02-18T15:02:39;5.93;;;4.20;;
1925;SDS011;964;42.606;23.588;2023-02-18T15:05:13;5.87;;;4.30;;
1925;SDS011;964;42.606;23.588;2023-02-18T15:07:41;8.90;;;5.17;;
1925;SDS011;964;42.606;23.588;2023-02-18T15:10:12;7.53;;;4.43;;
1925;SDS011;964;42.606;23.588;2023-02-18T15:12:41;5.80;;;4.47;;
1925;SDS011;964;42.606;23.588;2023-02-18T15:15:08;10.30;;;5.10;;
1925;SDS011;964;42.606;23.588;2023-02-18T15:17:40;7.80;;;4.00;;
1925;SDS011;964;42.606;23.588;2023-02-18T15:20:11;5.67;;;4.57;;
1925;SDS011;964;42.606;23.588;2023-02-18T15:22:39;10.97;;;5.17;;
1925;SDS011;964;42.606;23.588;2023-02-18T15:25:08;5.80;;;4.37;;
1925;SDS011;964;42.606;23.588;2023-02-18T15:27:38;7.37;;;5.20;;
1925;SDS011;964;42.606;23.588;2023-02-18T15:30:16;9.27;;;5.33;;
1925;SDS011;964;42.606;23.588;2023-02-18T15:32:49;6.93;;;4.90;;
1925;SDS011;964;42.606;23.588;2023-02-18T15:35:17;7.70;;;4.20;;
1925;SDS011;964;42.606;23.588;2023-02-18T15:37:51;5.60;;;4.30;;
1925;SDS011;964;42.606;23.588;2023-02-18T15:40:19;7.07;;;4.57;;